Time;durP1;ratioP1;P1;durP2;ratioP2;P2;SDS_P1;SDS_P2;PMS_P1;PMS_P2;Temp;Humidity;BMP_temperature;BMP_pressure;BME280_temperature;BME280_humidity;BME280_pressure;Samples;Min_cycle;Max_cycle;Signal;HPM_P1;HPM_P2
2022/10/11 00:05:32;;;;;;;6.10;1.88;;;;;;;12.61;87.59;101336.03;6165130;22;1300511;-74
2022/10/11 00:08:15;;;;;;;7.57;1.75;;;;;;;12.50;88.88;101339.16;5087697;27;20390;-74
2022/10/11 00:11:06;;;;;;;9.77;2.30;;;;;;;12.45;90.04;101345.56;5149689;27;20002;-74
2022/10/11 00:13:45;;;;;;;8.50;2.28;;;;;;;12.18;91.33;101347.69;5088562;27;20397;-74
2022/10/11 00:16:25;;;;;;;10.15;2.20;;;;;;;12.12;91.58;101351.44;5088596;27;20381;-74
2022/10/11 00:19:03;;;;;;;7.30;1.50;;;;;;;11.96;92.06;101369.63;5088857;27;20366;-74
2022/10/11 00:21:44;;;;;;;8.23;2.10;;;;;;;11.95;91.84;101374.94;5109641;27;20381;-74
2022/10/11 00:34:51;;;;;;;9.25;2.08;;;;;;;11.81;88.19;101399.94;6147265;22;1306379;-74
2022/10/11 00:48:13;;;;;;;11.32;2.05;;;;;;;11.27;88.98;101417.06;6239998;22;1290947;-74
2022/10/11 00:51:00;;;;;;;7.28;1.75;;;;;;;11.31;88.51;101418.66;5042143;27;1358768;-73
2022/10/11 00:53:40;;;;;;;11.03;2.07;;;;;;;11.27;88.47;101416.22;5064059;27;1302857;-74
2022/10/11 00:56:42;;;;;;;8.15;1.92;;;;;;;11.24;88.24;101421.59;5089596;27;20377;-73
2022/10/11 00:59:25;;;;;;;7.20;2.10;;;;;;;11.24;87.83;101432.91;5063325;27;1315290;-74
2022/10/11 01:02:03;;;;;;;5.40;1.60;;;;;;;11.11;87.33;101426.47;5046401;27;1311938;-74
2022/10/11 01:04:41;;;;;;;11.38;2.20;;;;;;;11.16;86.79;101424.50;5043284;27;1317434;-74
2022/10/11 01:18:15;;;;;;;7.03;1.53;;;;;;;11.03;86.80;101444.22;6148587;22;1305129;-74
2022/10/11 01:21:20;;;;;;;10.73;2.27;;;;;;;10.91;87.57;101446.44;5043379;27;1311253;-74
2022/10/11 01:34:36;;;;;;;8.45;1.75;;;;;;;10.62;85.47;101455.38;6233326;22;1298611;-74
2022/10/11 01:37:45;;;;;;;12.30;2.15;;;;;;;10.64;85.30;101457.94;5090096;27;20377;-73
2022/10/11 01:40:33;;;;;;;10.40;2.47;;;;;;;10.47;85.64;101461.19;5089335;27;20784;-74
2022/10/11 01:43:14;;;;;;;13.98;1.98;;;;;;;10.34;85.90;101457.28;5110398;27;20116;-74
2022/10/11 01:46:01;;;;;;;10.18;2.72;;;;;;;10.42;85.64;101469.19;5109520;27;20391;-73
2022/10/11 01:48:55;;;;;;;8.75;2.15;;;;;;;10.43;85.36;101470.03;5089364;28;20439;-74
2022/10/11 02:02:23;;;;;;;7.50;1.98;;;;;;;10.28;83.66;101481.91;6168774;22;1292620;-74
2022/10/11 02:05:29;;;;;;;9.23;1.77;;;;;;;10.20;83.40;101476.06;5088058;28;20694;-73
2022/10/11 02:18:35;;;;;;;10.73;2.50;;;;;;;9.87;82.56;101486.78;5039066;27;1340077;-74
2022/10/11 02:21:15;;;;;;;8.32;2.75;;;;;;;9.70;82.57;101489.09;5087947;27;20392;-73
2022/10/11 02:24:04;;;;;;;7.93;2.00;;;;;;;9.69;82.90;101492.63;5088296;27;20621;-74
2022/10/11 02:26:51;;;;;;;9.27;1.42;;;;;;;9.66;82.97;101490.09;5129263;27;20165;-74
2022/10/11 02:29:47;;;;;;;16.23;1.88;;;;;;;9.32;83.98;101493.81;5149256;27;20169;-74
2022/10/11 02:32:33;;;;;;;11.07;2.00;;;;;;;9.53;83.46;101493.13;5088188;27;20393;-74
2022/10/11 02:35:13;;;;;;;6.07;1.63;;;;;;;9.54;83.11;101487.00;5104625;27;1347922;-74
2022/10/11 02:48:18;;;;;;;10.55;2.03;;;;;;;9.33;82.09;101490.31;5049077;28;20395;-74
2022/10/11 02:50:57;;;;;;;12.70;1.80;;;;;;;9.41;82.13;101497.88;5089500;28;20875;-74
2022/10/11 02:53:35;;;;;;;8.50;1.60;;;;;;;9.44;82.07;101492.56;5109721;27;20162;-73
2022/10/11 03:06:43;;;;;;;7.80;1.48;;;;;;;9.30;80.60;101506.91;5150184;27;20522;-71
2022/10/11 03:09:33;;;;;;;9.53;2.03;;;;;;;9.33;80.33;101513.78;5083865;27;1303264;-74
2022/10/11 03:12:12;;;;;;;11.27;2.10;;;;;;;9.22;80.97;101508.03;5088125;27;20392;-74
2022/10/11 03:14:53;;;;;;;15.05;2.60;;;;;;;9.15;80.97;101519.56;5072845;27;20420;-74
2022/10/11 03:27:56;;;;;;;9.77;1.88;;;;;;;9.04;80.70;101531.19;5088923;27;20845;-72
2022/10/11 03:30:40;;;;;;;10.20;1.60;;;;;;;8.92;81.26;101530.69;5068501;28;20412;-74
2022/10/11 03:43:46;;;;;;;8.38;1.83;;;;;;;9.10;80.57;101545.81;6140243;22;1361125;-74
2022/10/11 03:46:31;;;;;;;10.55;2.92;;;;;;;9.01;80.83;101544.31;5088746;27;20374;-74
2022/10/11 03:49:09;;;;;;;8.15;1.60;;;;;;;9.12;80.03;101549.22;5090047;28;20401;-74
2022/10/11 03:51:46;;;;;;;8.10;2.25;;;;;;;9.10;80.37;101545.81;5050424;27;1352337;-74
2022/10/11 03:54:24;;;;;;;13.18;3.05;;;;;;;9.03;81.04;101545.16;5088930;28;20396;-74
2022/10/11 03:57:03;;;;;;;22.50;3.75;;;;;;;8.81;82.18;101549.28;5068988;28;20475;-74
2022/10/11 03:59:41;;;;;;;11.23;2.40;;;;;;;8.57;83.48;101551.66;5089487;27;20393;-73
2022/10/11 04:02:35;;;;;;;6.75;2.10;;;;;;;8.60;84.21;101561.16;5110774;27;20376;-74
2022/10/11 04:05:14;;;;;;;17.42;2.78;;;;;;;8.69;84.21;101562.66;5053881;27;1594286;-73
2022/10/11 04:07:53;;;;;;;9.32;2.05;;;;;;;8.68;84.27;101558.31;5088916;28;20450;-74
2022/10/11 04:10:32;;;;;;;12.52;2.25;;;;;;;8.80;83.92;101552.75;5101283;27;20118;-74
2022/10/11 04:13:23;;;;;;;7.72;2.20;;;;;;;8.77;84.24;101563.28;5109234;27;20738;-74
2022/10/11 04:16:19;;;;;;;9.15;2.38;;;;;;;8.76;83.80;101562.44;5109999;27;20478;-73
2022/10/11 04:32:33;;;;;;;6.93;2.03;;;;;;;8.88;82.56;101589.94;5982124;22;4394098;-72
2022/10/11 04:45:43;;;;;;;16.67;3.05;;;;;;;8.54;81.22;101598.66;6065594;22;3134124;-72
2022/10/11 04:58:54;;;;;;;7.68;2.42;;;;;;;8.41;82.65;101602.50;5146743;27;20403;-74
2022/10/11 05:01:41;;;;;;;11.27;3.22;;;;;;;8.38;82.08;101605.19;5065201;28;20394;-76
2022/10/11 05:04:27;;;;;;;6.80;2.10;;;;;;;8.45;82.37;101611.09;5086463;27;20390;-74
2022/10/11 05:07:20;;;;;;;8.35;2.42;;;;;;;8.50;82.21;101604.00;5105528;27;20456;-73
2022/10/11 05:20:28;;;;;;;8.25;1.58;;;;;;;8.44;82.44;101618.06;6136630;22;1538568;-73
2022/10/11 05:33:37;;;;;;;8.38;1.70;;;;;;;8.15;82.74;101627.44;6176058;22;1319424;-72
2022/10/11 05:46:44;;;;;;;4.22;1.67;;;;;;;8.24;81.20;101661.97;6140323;22;1701344;-73
2022/10/11 05:59:51;;;;;;;12.48;2.00;;;;;;;7.98;83.49;101675.63;6227390;22;1303874;-74
2022/10/11 06:13:03;;;;;;;12.60;1.92;;;;;;;7.94;82.53;101690.44;5043940;28;20441;-74
2022/10/11 06:26:12;;;;;;;15.27;1.58;;;;;;;8.07;82.13;101697.09;5187675;22;24093090;-72
2022/10/11 06:29:08;;;;;;;5.30;1.60;;;;;;;8.10;81.88;101702.25;5086454;27;20433;-74
2022/10/11 06:31:46;;;;;;;4.65;1.35;;;;;;;8.22;81.69;101708.03;4522387;27;15080693;-74
2022/10/11 06:34:41;;;;;;;10.52;1.85;;;;;;;7.96;81.93;101719.91;5089657;27;20451;-74
2022/10/11 06:37:38;;;;;;;33.15;2.40;;;;;;;7.42;84.58;101721.06;5129632;27;20474;-72
2022/10/11 06:50:41;;;;;;;3.65;1.20;;;;;;;7.95;81.94;101733.84;3983734;27;30055683;-74
2022/10/11 06:53:29;;;;;;;11.00;1.85;;;;;;;8.02;81.40;101730.22;5070054;28;20408;-74
2022/10/11 06:56:28;;;;;;;9.00;1.60;;;;;;;8.04;81.59;101732.75;5090535;28;20371;-74
2022/10/11 06:59:26;;;;;;;5.10;1.77;;;;;;;7.91;81.99;101729.56;5110958;27;20407;-74
2022/10/11 07:02:09;;;;;;;5.05;2.20;;;;;;;7.98;82.40;101735.53;4266367;27;23889740;-74
2022/10/11 07:05:03;;;;;;;4.20;2.20;;;;;;;8.07;82.18;101738.78;5088362;28;20390;-74
2022/10/11 07:18:26;;;;;;;4.32;1.88;;;;;;;8.47;81.76;101745.69;5118523;27;20337;-74
2022/10/11 07:31:29;;;;;;;15.18;2.45;;;;;;;8.26;82.50;101753.97;3873115;27;33296075;-73
2022/10/11 07:34:32;;;;;;;4.15;2.03;;;;;;;8.59;82.84;101758.44;5088572;27;20411;-74
2022/10/11 07:47:55;;;;;;;6.03;2.92;;;;;;;8.60;82.54;101754.94;5127624;27;20422;-74
2022/10/11 07:51:25;;;;;;;5.35;2.58;;;;;;;8.38;83.50;101762.41;5108819;27;20420;-74
2022/10/11 07:54:24;;;;;;;8.02;3.15;;;;;;;8.55;84.32;101761.13;5110418;27;20405;-74
2022/10/11 07:57:36;;;;;;;8.50;2.45;;;;;;;8.71;84.18;101756.41;5090307;27;20410;-73
2022/10/11 08:11:36;;;;;;;5.65;2.38;;;;;;;8.33;87.22;101768.59;5089101;28;20422;-74
2022/10/11 08:14:28;;;;;;;6.47;2.83;;;;;;;7.95;89.89;101767.69;3966733;27;33244971;-74
2022/10/11 08:17:23;;;;;;;5.03;2.35;;;;;;;8.29;89.35;101769.53;5066333;28;20392;-74
2022/10/11 08:20:05;;;;;;;5.03;2.67;;;;;;;7.95;90.16;101775.50;4454861;27;18008113;-75
2022/10/11 08:22:51;;;;;;;8.18;3.00;;;;;;;7.86;91.63;101773.94;4549933;27;15801537;-74
2022/10/11 08:25:55;;;;;;;23.45;4.10;;;;;;;8.22;90.66;101767.97;5131429;27;20937;-73
2022/10/11 08:38:58;;;;;;;3.53;2.25;;;;;;;8.51;90.07;101765.56;4432202;27;17929674;-73
2022/10/11 08:42:22;;;;;;;4.63;2.33;;;;;;;8.65;89.38;101764.38;5081445;27;20425;-74
2022/10/11 08:56:03;;;;;;;8.07;2.85;;;;;;;8.87;89.83;101765.59;5065116;27;20393;-73
2022/10/11 08:59:03;;;;;;;3.85;1.80;;;;;;;8.79;90.11;101759.69;5061862;28;20388;-75
2022/10/11 09:02:23;;;;;;;9.05;1.92;;;;;;;8.80;88.76;101761.41;5083616;28;20422;-74
2022/10/11 09:05:13;;;;;;;7.85;2.00;;;;;;;9.07;87.71;101759.84;5084163;27;20401;-74
2022/10/11 09:08:24;;;;;;;8.20;2.53;;;;;;;9.23;86.81;101755.06;5096743;27;20879;-75
2022/10/11 09:11:31;;;;;;;11.37;2.50;;;;;;;9.22;88.54;101758.56;5059169;27;1315791;-75
2022/10/11 09:14:18;;;;;;;13.90;4.40;;;;;;;9.20;89.58;101763.00;5065546;28;20428;-74
2022/10/11 09:16:57;;;;;;;8.88;2.50;;;;;;;8.98;90.16;101755.72;5059413;27;1314987;-74
2022/10/11 09:19:50;;;;;;;10.57;3.17;;;;;;;9.33;89.98;101751.31;5129241;27;20521;-75
2022/10/11 09:22:43;;;;;;;11.50;3.58;;;;;;;9.54;88.71;101755.94;5143946;27;20390;-75
2022/10/11 09:25:36;;;;;;;11.48;2.47;;;;;;;9.60;88.68;101751.44;5088148;27;20957;-75
2022/10/11 09:38:45;;;;;;;12.05;1.75;;;;;;;10.57;85.48;101746.75;5023057;28;20386;-72
2022/10/11 09:42:21;;;;;;;17.08;2.75;;;;;;;10.76;87.34;101740.00;5023742;28;20048;-72
2022/10/11 09:45:24;;;;;;;14.48;3.40;;;;;;;10.96;85.38;101739.31;5018065;28;20083;-73
2022/10/11 09:48:37;;;;;;;14.77;1.90;;;;;;;11.23;82.08;101734.03;5025011;28;20099;-70
2022/10/11 09:51:46;;;;;;;10.73;2.50;;;;;;;11.34;77.87;101730.13;5024280;28;20080;-70
2022/10/11 09:54:54;;;;;;;16.25;2.63;;;;;;;11.44;77.61;101733.25;5023458;28;20052;-71
2022/10/11 09:57:57;;;;;;;11.98;2.38;;;;;;;11.40;75.80;101736.91;5023319;28;20133;-71
2022/10/11 10:01:07;;;;;;;13.93;2.60;;;;;;;11.41;77.37;101734.22;5024001;28;20080;-71
2022/10/11 10:04:15;;;;;;;8.68;2.30;;;;;;;11.41;76.09;101731.59;5023902;28;20115;-72
2022/10/11 10:07:20;;;;;;;13.10;3.35;;;;;;;11.52;75.43;101727.72;5004760;28;20044;-71
2022/10/11 10:10:32;;;;;;;13.55;3.17;;;;;;;11.58;75.31;101724.88;5004489;28;20045;-71
2022/10/11 10:13:50;;;;;;;15.83;2.53;;;;;;;11.61;73.92;101724.75;5003997;28;20044;-71
2022/10/11 10:17:01;;;;;;;14.95;2.83;;;;;;;11.68;74.44;101726.28;4985022;28;20048;-73
2022/10/11 10:20:06;;;;;;;14.63;2.30;;;;;;;11.70;72.10;101723.56;4997825;28;20093;-73
2022/10/11 10:23:22;;;;;;;12.88;2.90;;;;;;;11.78;72.49;101727.63;5005196;28;20076;-73
2022/10/11 10:26:26;;;;;;;13.20;2.75;;;;;;;11.81;71.69;101717.03;5001956;28;20040;-73
2022/10/11 10:29:29;;;;;;;10.82;2.55;;;;;;;11.89;71.71;101719.38;5004876;28;20060;-73
2022/10/11 10:32:41;;;;;;;10.20;1.70;;;;;;;11.93;71.45;101720.09;5004819;28;20068;-73
2022/10/11 10:35:49;;;;;;;9.90;2.35;;;;;;;11.95;70.80;101718.28;5003469;28;20401;-73
2022/10/11 10:39:28;;;;;;;14.52;3.00;;;;;;;11.99;68.31;101712.00;4993877;28;20530;-73
2022/10/11 10:42:31;;;;;;;13.35;2.33;;;;;;;12.06;69.83;101709.09;4990971;28;20814;-73
2022/10/11 10:46:02;;;;;;;13.68;2.38;;;;;;;12.10;68.99;101707.19;4990576;28;20108;-72
2022/10/11 10:49:16;;;;;;;12.48;2.95;;;;;;;12.18;69.01;101699.00;4989836;28;20053;-72
2022/10/11 10:52:19;;;;;;;6.22;1.73;;;;;;;12.22;68.54;101700.59;4992555;28;20057;-73
2022/10/11 10:55:31;;;;;;;12.32;2.42;;;;;;;12.28;68.33;101695.97;4993069;28;20053;-73
2022/10/11 10:58:34;;;;;;;8.93;2.35;;;;;;;12.31;68.74;101693.19;4995193;28;20559;-73
2022/10/11 11:01:48;;;;;;;;;;;;;;;12.35;68.31;101686.09;4995307;28;20107;-72
2022/10/11 11:05:11;;;;;;;11.85;2.10;;;;;;;12.41;67.45;101684.97;4995062;28;19920;-72
2022/10/11 11:08:39;;;;;;;8.15;1.98;;;;;;;12.45;66.03;101682.16;4994868;28;20097;-72
2022/10/11 11:11:42;;;;;;;9.48;2.03;;;;;;;12.53;65.84;101679.22;4994555;28;20057;-72
2022/10/11 11:15:10;;;;;;;20.00;3.05;;;;;;;12.63;65.73;101679.66;4994617;28;20041;-72
2022/10/11 11:18:27;;;;;;;11.23;2.20;;;;;;;12.69;65.24;101675.00;4994798;28;20741;-72
2022/10/11 11:21:47;;;;;;;7.90;2.72;;;;;;;12.71;64.02;101670.56;4994627;28;20100;-72
2022/10/11 11:25:25;;;;;;;13.45;2.17;;;;;;;12.77;65.44;101675.56;4994545;28;20135;-72
2022/10/11 11:28:51;;;;;;;10.23;2.40;;;;;;;12.90;64.75;101673.25;4993940;28;20041;-73
2022/10/11 11:32:10;;;;;;;12.50;2.20;;;;;;;12.98;63.33;101665.03;4993378;28;20080;-73
2022/10/11 11:35:22;;;;;;;9.48;2.25;;;;;;;13.01;64.78;101668.34;4993619;28;20065;-73
2022/10/11 11:38:39;;;;;;;8.02;1.88;;;;;;;13.07;62.43;101666.41;4993798;28;20053;-73
2022/10/11 11:41:58;;;;;;;13.02;2.05;;;;;;;13.14;63.96;101655.53;4993807;28;20569;-73
2022/10/11 11:45:25;;;;;;;17.42;3.03;;;;;;;13.26;63.10;101652.41;4994190;28;20185;-73
2022/10/11 11:48:29;;;;;;;10.18;2.00;;;;;;;13.35;63.54;101651.13;4994030;28;20089;-72
2022/10/11 11:51:42;;;;;;;9.57;1.83;;;;;;;13.43;62.96;101651.66;4993699;28;20085;-75
2022/10/11 11:55:07;;;;;;;9.00;1.95;;;;;;;13.59;60.99;101650.91;4993842;28;20101;-73
2022/10/11 11:58:36;;;;;;;10.48;1.40;;;;;;;13.68;60.54;101645.22;4993347;28;20150;-73
2022/10/11 12:01:54;;;;;;;11.98;2.65;;;;;;;13.81;60.89;101645.47;4993878;28;20104;-73
2022/10/11 12:04:58;;;;;;;9.13;1.70;;;;;;;13.92;61.20;101651.09;4993720;28;20041;-73
2022/10/11 12:08:04;;;;;;;11.55;1.88;;;;;;;14.01;60.01;101640.13;4992705;28;20629;-74
2022/10/11 12:11:19;;;;;;;7.97;1.35;;;;;;;14.15;58.25;101637.66;4993206;28;20065;-75
2022/10/11 12:14:27;;;;;;;9.75;1.95;;;;;;;14.21;58.78;101636.50;4992982;28;20100;-73
2022/10/11 12:17:30;;;;;;;9.02;2.03;;;;;;;14.22;58.35;101640.00;4993184;28;20511;-74
2022/10/11 12:20:39;;;;;;;13.40;2.08;;;;;;;14.38;57.60;101635.66;4993214;28;20045;-73
2022/10/11 12:23:48;;;;;;;6.90;1.30;;;;;;;14.45;58.10;101637.03;4993282;28;20069;-72
2022/10/11 12:26:57;;;;;;;14.70;1.73;;;;;;;14.55;59.64;101638.34;4992706;28;20097;-71
2022/10/11 12:30:00;;;;;;;8.20;1.63;;;;;;;14.60;56.42;101624.91;4993042;28;20448;-74
2022/10/11 12:33:31;;;;;;;12.50;1.98;;;;;;;14.61;56.52;101622.22;4993107;28;20096;-72
2022/10/11 12:36:49;;;;;;;8.80;2.55;;;;;;;14.70;57.50;101625.28;4990047;28;20097;-73
2022/10/11 12:39:56;;;;;;;14.80;2.58;;;;;;;14.68;57.81;101617.50;4993031;28;20100;-73
2022/10/11 12:43:15;;;;;;;12.93;2.13;;;;;;;14.68;57.62;101606.09;4993037;28;20411;-73
2022/10/11 12:46:27;;;;;;;7.63;2.28;;;;;;;14.69;56.22;101618.34;4992826;28;20041;-73
2022/10/11 12:49:36;;;;;;;7.55;1.83;;;;;;;14.58;60.56;101611.84;4992817;28;20088;-73
2022/10/11 12:53:17;;;;;;;10.75;1.80;;;;;;;14.62;56.97;101602.00;4992760;28;20135;-73
2022/10/11 12:56:35;;;;;;;7.50;1.23;;;;;;;14.75;57.43;101607.50;4992824;28;20052;-74
2022/10/11 12:59:46;;;;;;;9.38;1.85;;;;;;;14.63;59.69;101606.34;4992892;28;20061;-74
2022/10/11 13:02:49;;;;;;;9.95;1.50;;;;;;;14.55;60.37;101603.25;4992421;28;20057;-73
2022/10/11 13:05:56;;;;;;;7.03;1.58;;;;;;;14.52;58.62;101604.28;4992717;28;20049;-72
2022/10/11 13:09:11;;;;;;;7.70;1.63;;;;;;;14.53;56.92;101592.81;4993001;28;20057;-72
2022/10/11 13:12:18;;;;;;;7.18;1.63;;;;;;;14.55;57.53;101593.59;4991897;28;20049;-72
2022/10/11 13:15:22;;;;;;;7.35;1.65;;;;;;;14.57;57.01;101593.50;4992398;28;20073;-72
2022/10/11 13:18:25;;;;;;;7.70;1.98;;;;;;;14.68;57.29;101585.91;4980511;28;20042;-72
2022/10/11 13:21:31;;;;;;;9.07;2.00;;;;;;;14.51;57.38;101586.75;4983371;28;20084;-72
2022/10/11 13:24:37;;;;;;;7.25;1.13;;;;;;;14.58;56.07;101585.53;4987287;28;20523;-72
2022/10/11 13:27:42;;;;;;;7.75;1.58;;;;;;;14.62;54.54;101586.22;4986777;28;20085;-71
2022/10/11 13:30:48;;;;;;;8.60;2.45;;;;;;;14.61;55.67;101577.47;4987181;28;20074;-72
2022/10/11 13:33:54;;;;;;;7.43;1.55;;;;;;;14.65;56.45;101578.16;4987629;28;20085;-74
2022/10/11 13:36:58;;;;;;;8.18;1.98;;;;;;;14.61;56.11;101574.84;4967987;28;20045;-75
2022/10/11 13:40:02;;;;;;;7.43;1.30;;;;;;;14.82;55.10;101577.25;4968389;28;20058;-73
2022/10/11 13:43:07;;;;;;;8.20;1.50;;;;;;;14.81;56.16;101576.41;4968716;28;20089;-75
2022/10/11 13:46:18;;;;;;;7.53;1.80;;;;;;;14.78;54.08;101576.59;4975501;28;20517;-75
2022/10/11 13:49:35;;;;;;;8.90;1.40;;;;;;;14.83;53.64;101568.44;4977365;28;20052;-74
2022/10/11 13:53:06;;;;;;;10.20;1.80;;;;;;;14.82;54.54;101572.00;4988192;28;20407;-76
2022/10/11 13:56:11;;;;;;;7.72;2.05;;;;;;;14.76;54.54;101567.06;4988920;28;20049;-75
2022/10/11 13:59:23;;;;;;;10.43;2.22;;;;;;;14.76;54.17;101567.91;4988661;28;20045;-75
2022/10/11 14:02:35;;;;;;;12.18;1.70;;;;;;;14.75;54.53;101563.56;4986571;28;20053;-76
2022/10/11 14:05:43;;;;;;;4.90;1.17;;;;;;;14.80;55.06;101560.69;4987947;28;20057;-75
2022/10/11 14:08:55;;;;;;;10.02;1.73;;;;;;;14.71;56.60;101564.69;4988451;28;20269;-75
2022/10/11 14:12:30;;;;;;;10.63;1.40;;;;;;;14.57;58.60;101565.38;4988218;28;20073;-75
2022/10/11 14:15:36;;;;;;;10.55;1.20;;;;;;;14.61;57.47;101560.81;4990583;28;20085;-74
2022/10/11 14:19:10;;;;;;;5.90;1.45;;;;;;;14.47;57.94;101564.16;4988810;28;20412;-75
2022/10/11 14:22:16;;;;;;;6.22;1.70;;;;;;;14.61;57.30;101552.91;4971198;28;20042;-75
2022/10/11 14:25:20;;;;;;;8.27;1.88;;;;;;;14.50;58.82;101558.72;4984423;28;20408;-75
2022/10/11 14:28:23;;;;;;;6.65;1.48;;;;;;;14.33;58.27;101548.22;4991078;28;20045;-75
2022/10/11 14:31:27;;;;;;;8.57;1.67;;;;;;;14.52;59.33;101554.28;4990866;28;20057;-74
2022/10/11 14:34:31;;;;;;;8.32;1.63;;;;;;;14.58;59.89;101553.94;4991165;28;20101;-74
2022/10/11 14:37:34;;;;;;;9.75;1.30;;;;;;;14.61;58.77;101560.81;4983424;28;20050;-75
2022/10/11 14:40:38;;;;;;;7.03;1.27;;;;;;;14.91;58.60;101552.22;4969748;28;20427;-72
2022/10/11 14:43:45;;;;;;;9.88;2.45;;;;;;;15.07;59.18;101556.56;4975059;28;20104;-74
2022/10/11 14:46:50;;;;;;;7.68;1.50;;;;;;;15.02;58.98;101553.31;4990046;28;20033;-74
2022/10/11 14:49:55;;;;;;;7.72;2.60;;;;;;;14.71;59.52;101553.28;4982214;28;20472;-74
2022/10/11 14:52:59;;;;;;;10.13;1.70;;;;;;;14.34;61.13;101544.66;4971686;28;20415;-74
2022/10/11 14:56:02;;;;;;;10.57;1.85;;;;;;;14.01;61.82;101548.09;4971455;28;20089;-75
2022/10/11 14:59:06;;;;;;;11.63;1.77;;;;;;;13.73;62.13;101554.72;4983889;28;20045;-74
2022/10/11 15:02:10;;;;;;;7.32;1.80;;;;;;;13.57;61.26;101538.00;4983735;28;20062;-80
2022/10/11 15:05:38;;;;;;;6.18;1.48;;;;;;;13.41;61.47;101544.91;4978511;28;20413;-74
2022/10/11 15:09:08;;;;;;;7.63;1.65;;;;;;;13.25;63.63;101543.00;4986621;28;20638;-74
2022/10/11 15:12:13;;;;;;;7.30;1.48;;;;;;;13.21;63.42;101541.44;4999305;28;20085;-82
2022/10/11 15:15:19;;;;;;;7.85;1.40;;;;;;;13.07;64.36;101541.22;4980115;28;20081;-75
2022/10/11 15:18:24;;;;;;;6.63;1.63;;;;;;;13.03;63.92;101544.91;4970114;28;20046;-76
2022/10/11 15:21:28;;;;;;;6.53;1.50;;;;;;;13.02;65.01;101541.44;4969405;28;20097;-77
2022/10/11 15:24:32;;;;;;;9.27;3.35;;;;;;;12.81;64.71;101531.91;4970445;28;20046;-77
2022/10/11 15:27:35;;;;;;;11.38;3.45;;;;;;;12.94;65.81;101537.44;4975153;28;20196;-84
2022/10/11 15:30:40;;;;;;;6.80;1.90;;;;;;;12.83;67.08;101530.09;4990935;28;20444;-78
2022/10/11 15:33:43;;;;;;;7.38;2.00;;;;;;;12.80;67.32;101544.19;4990304;28;20456;-78
2022/10/11 15:36:48;;;;;;;12.65;2.60;;;;;;;12.65;67.67;101534.38;4988278;28;20053;-77
2022/10/11 15:39:52;;;;;;;9.55;2.17;;;;;;;12.63;68.22;101536.22;4989332;28;20077;-78
2022/10/11 15:42:55;;;;;;;8.52;1.75;;;;;;;12.47;69.28;101535.19;4988906;28;20042;-79
2022/10/11 15:46:00;;;;;;;8.20;1.55;;;;;;;12.31;69.58;101533.22;4989818;28;20688;-79
2022/10/11 15:49:13;;;;;;;9.35;1.85;;;;;;;12.42;69.62;101539.81;4989303;28;20488;-76
2022/10/11 15:52:17;;;;;;;7.13;1.70;;;;;;;12.18;70.44;101537.31;4979354;28;20074;-76
2022/10/11 15:55:22;;;;;;;6.15;1.60;;;;;;;12.16;70.43;101538.31;4983791;28;20077;-78
2022/10/11 15:58:33;;;;;;;9.40;1.65;;;;;;;12.07;71.54;101540.38;4983151;28;20045;-77
2022/10/11 16:01:36;;;;;;;8.70;2.20;;;;;;;12.03;71.75;101543.22;4988633;28;20037;-77
2022/10/11 16:04:42;;;;;;;10.07;3.50;;;;;;;11.92;72.29;101545.41;4990331;28;20105;-77
2022/10/11 16:07:47;;;;;;;9.82;3.67;;;;;;;11.87;72.83;101553.50;4987738;28;20073;-77
2022/10/11 16:10:51;;;;;;;12.07;3.35;;;;;;;11.71;73.49;101548.00;4981736;28;20101;-77
2022/10/11 16:13:55;;;;;;;7.43;1.95;;;;;;;11.68;74.04;101555.97;4989912;28;20041;-77
2022/10/11 16:16:59;;;;;;;6.70;2.00;;;;;;;11.56;74.26;101549.44;4985076;28;20041;-78
2022/10/11 16:20:05;;;;;;;10.38;2.65;;;;;;;11.55;74.54;101546.88;4984107;28;20053;-77
2022/10/11 16:23:09;;;;;;;8.32;1.95;;;;;;;11.50;74.70;101548.84;4976628;28;20052;-77
2022/10/11 16:26:15;;;;;;;9.05;1.88;;;;;;;11.37;75.20;101557.19;4986690;28;20044;-78
2022/10/11 16:29:19;;;;;;;9.32;1.40;;;;;;;11.33;75.17;101550.38;4979170;28;20084;-78
2022/10/11 16:32:24;;;;;;;7.22;1.40;;;;;;;11.26;75.09;101558.50;4987444;28;20073;-78
2022/10/11 16:35:28;;;;;;;10.60;1.85;;;;;;;11.13;75.20;101556.34;4988121;28;20049;-77
2022/10/11 16:38:32;;;;;;;9.23;1.50;;;;;;;10.99;74.89;101555.19;4987798;28;20093;-75
2022/10/11 16:41:36;;;;;;;6.80;1.30;;;;;;;10.98;74.66;101566.56;4977695;28;20428;-76
2022/10/11 16:44:39;;;;;;;;;;;;;;;10.93;74.91;101561.50;4981634;28;20317;-76
2022/10/11 16:47:42;;;;;;;9.65;1.83;;;;;;;10.88;74.73;101564.28;4969279;28;19944;-76
2022/10/11 16:50:46;;;;;;;8.60;1.42;;;;;;;10.73;74.44;101561.38;4969469;28;20100;-76
2022/10/11 16:53:51;;;;;;;4.85;1.50;;;;;;;10.58;75.44;101563.63;4976186;28;20422;-76
2022/10/11 16:56:55;;;;;;;7.55;1.63;;;;;;;10.59;75.13;101569.69;4988509;28;20193;-75
2022/10/11 17:00:00;;;;;;;9.52;1.65;;;;;;;10.46;75.17;101572.78;4988510;28;20117;-76
2022/10/11 17:03:04;;;;;;;12.50;3.28;;;;;;;10.51;74.61;101566.53;4998849;28;20061;-77
2022/10/11 17:06:08;;;;;;;5.03;1.17;;;;;;;10.34;75.51;101575.81;4965986;28;20467;-76
2022/10/11 17:09:12;;;;;;;5.22;1.60;;;;;;;10.30;75.64;101568.97;4987659;28;20052;-79
2022/10/11 17:12:19;;;;;;;11.35;2.40;;;;;;;10.21;75.63;101575.34;4987552;28;20531;-78
2022/10/11 17:15:24;;;;;;;8.07;1.48;;;;;;;10.21;75.55;101575.34;4987833;28;20049;-77
2022/10/11 17:18:32;;;;;;;6.57;1.40;;;;;;;10.12;75.65;101585.25;4988300;28;20041;-78
2022/10/11 17:21:37;;;;;;;7.85;1.50;;;;;;;10.09;75.74;101583.59;4968848;28;20050;-78
2022/10/11 17:24:42;;;;;;;5.63;1.30;;;;;;;10.03;75.76;101578.56;4988165;28;20049;-84
2022/10/11 17:27:46;;;;;;;6.03;1.52;;;;;;;9.99;75.74;101585.66;4988128;28;20053;-77
2022/10/11 17:30:55;;;;;;;8.25;1.35;;;;;;;9.91;75.75;101587.66;4988860;28;20126;-78
2022/10/11 17:34:01;;;;;;;4.50;1.30;;;;;;;9.91;75.66;101589.41;4987433;28;20129;-78
2022/10/11 17:37:32;;;;;;;9.02;1.52;;;;;;;9.87;75.81;101582.59;4984133;28;20057;-78
2022/10/11 17:40:36;;;;;;;8.68;1.42;;;;;;;9.71;76.11;101590.91;4987490;28;20144;-78
2022/10/11 17:43:42;;;;;;;5.32;1.13;;;;;;;9.62;76.00;101595.56;4987870;28;20558;-77
2022/10/11 17:46:45;;;;;;;;;;;;;;;9.58;75.89;101599.19;4988065;28;20077;-78
2022/10/11 17:49:49;;;;;;;8.50;1.70;;;;;;;9.62;75.87;101600.78;4991637;28;19940;-85
2022/10/11 17:52:53;;;;;;;7.25;1.55;;;;;;;9.58;75.87;101604.41;4975180;28;20041;-77
2022/10/11 17:55:57;;;;;;;4.88;1.40;;;;;;;9.48;76.32;101603.84;4986215;28;20404;-77
2022/10/11 17:59:04;;;;;;;6.40;1.50;;;;;;;9.33;76.64;101605.16;4992006;28;20049;-83
2022/10/11 18:02:09;;;;;;;6.82;1.67;;;;;;;9.35;76.31;101608.56;4992493;28;20054;-79
2022/10/11 18:05:13;;;;;;;;;;;;;;;9.30;76.64;101602.63;4991890;28;20149;-78
2022/10/11 18:08:17;;;;;;;15.27;2.03;;;;;;;9.25;76.54;101602.78;4991348;28;19960;-79
2022/10/11 18:11:20;;;;;;;;;;;;;;;9.20;76.99;101607.25;4991789;28;20550;-79
2022/10/11 18:14:23;;;;;;;5.90;2.03;;;;;;;9.14;76.96;101609.19;4991597;28;19955;-79
2022/10/11 18:17:26;;;;;;;;;;;;;;;9.10;76.91;101608.44;4992996;28;20109;-82
2022/10/11 18:20:31;;;;;;;9.93;2.40;;;;;;;9.01;77.03;101609.53;4991438;28;19985;-80
2022/10/11 18:23:36;;;;;;;7.17;1.83;;;;;;;8.94;77.20;101608.00;4645377;28;10000626;-80
2022/10/11 18:26:41;;;;;;;5.28;1.63;;;;;;;8.95;76.42;101604.50;4986902;28;20190;-81
2022/10/11 18:29:45;;;;;;;8.35;1.85;;;;;;;8.75;77.16;101612.03;4982212;28;20101;-82
2022/10/11 18:32:50;;;;;;;5.35;1.48;;;;;;;8.84;76.76;101607.41;4972097;28;20093;-82
2022/10/11 18:36:01;;;;;;;7.85;2.30;;;;;;;8.72;77.15;101609.50;4970796;28;20105;-81
2022/10/11 18:39:10;;;;;;;6.90;1.52;;;;;;;8.73;76.78;101604.25;4971096;28;20083;-82
2022/10/11 18:42:13;;;;;;;5.57;1.60;;;;;;;8.73;76.62;101603.38;4970884;28;20054;-81
2022/10/11 18:45:17;;;;;;;5.90;1.60;;;;;;;8.71;76.70;101610.38;4971155;28;20543;-84
2022/10/11 18:48:20;;;;;;;;;;;;;;;8.66;77.15;101604.47;4980771;28;20057;-83
2022/10/11 18:51:29;;;;;;;9.93;1.55;;;;;;;8.72;76.74;101602.53;4991438;28;19921;-83
2022/10/11 18:54:32;;;;;;;7.40;1.98;;;;;;;8.58;76.81;101602.91;4990792;28;20054;-83